Time;durP1;ratioP1;P1;durP2;ratioP2;P2;SDS_P1;SDS_P2;PMS_P1;PMS_P2;Temp;Humidity;BMP_temperature;BMP_pressure;BME280_temperature;BME280_humidity;BME280_pressure;Samples;Min_cycle;Max_cycle;Signal;HPM_P1;HPM_P2
2021/12/08 00:00:55;;;;;;;10.23;2.40;;;5.30;99.90;;;;;;5003199;28;20223;-65
2021/12/08 00:03:24;;;;;;;4.33;2.20;;;5.20;99.90;;;;;;4997540;28;20248;-65
2021/12/08 00:05:51;;;;;;;5.27;2.50;;;5.10;99.90;;;;;;5005297;28;20579;-65
2021/12/08 00:08:20;;;;;;;6.77;2.37;;;5.10;99.90;;;;;;5010808;28;20366;-65
2021/12/08 00:13:20;;;;;;;5.73;2.60;;;5.00;99.90;;;;;;5027741;28;20233;-65
2021/12/08 00:15:50;;;;;;;5.03;2.47;;;4.90;99.90;;;;;;5020056;28;20221;-65
2021/12/08 00:18:27;;;;;;;9.00;2.83;;;4.70;99.90;;;;;;5006208;28;20565;-65
2021/12/08 00:20:57;;;;;;;9.00;3.30;;;4.70;99.90;;;;;;5001638;28;20220;-65
2021/12/08 00:23:25;;;;;;;8.33;2.80;;;4.70;99.90;;;;;;5014582;28;20218;-65
2021/12/08 00:25:53;;;;;;;5.90;2.50;;;4.70;99.90;;;;;;5002876;28;20193;-65
2021/12/08 00:28:20;;;;;;;6.63;2.50;;;4.70;99.90;;;;;;5007003;28;20286;-65
2021/12/08 00:30:49;;;;;;;8.13;2.90;;;4.80;99.90;;;;;;5024552;28;20285;-65
2021/12/08 00:33:18;;;;;;;5.30;2.60;;;4.70;99.90;;;;;;5009782;28;20230;-65
2021/12/08 00:35:47;;;;;;;7.27;2.90;;;4.70;99.90;;;;;;5007382;28;20210;-65
2021/12/08 00:38:17;;;;;;;6.87;3.07;;;4.80;99.90;;;;;;5004732;28;20574;-65
2021/12/08 00:40:45;;;;;;;6.57;3.10;;;4.70;99.90;;;;;;4996071;28;20209;-65
2021/12/08 00:43:12;;;;;;;5.37;2.53;;;4.80;99.90;;;;;;5010161;28;20224;-65
2021/12/08 00:45:39;;;;;;;5.17;2.20;;;4.80;99.90;;;;;;5008680;28;20199;-65
2021/12/08 00:48:06;;;;;;;7.00;2.50;;;4.90;99.90;;;;;;5008257;28;20200;-65
2021/12/08 00:50:35;;;;;;;5.50;2.17;;;4.90;99.90;;;;;;5007835;28;20201;-65
2021/12/08 00:53:02;;;;;;;3.53;1.90;;;5.00;99.90;;;;;;5012071;28;20586;-65
2021/12/08 00:55:29;;;;;;;4.70;2.67;;;4.90;99.90;;;;;;5006616;28;20194;-65
2021/12/08 00:57:56;;;;;;;3.93;2.20;;;4.90;99.90;;;;;;5007196;28;20198;-65
2021/12/08 01:00:25;;;;;;;4.03;2.20;;;4.90;99.90;;;;;;5013204;28;20810;-65
2021/12/08 01:02:52;;;;;;;5.20;2.00;;;4.70;99.90;;;;;;5023505;28;20244;-65
2021/12/08 01:05:24;;;;;;;5.10;2.40;;;4.60;99.90;;;;;;5015679;28;20195;-65
2021/12/08 01:07:50;;;;;;;4.80;2.03;;;4.70;99.90;;;;;;5011113;28;20197;-65
2021/12/08 01:10:21;;;;;;;3.50;2.00;;;4.70;99.90;;;;;;5013446;28;20196;-65
2021/12/08 01:13:05;;;;;;;5.37;2.27;;;4.70;99.90;;;;;;5020841;28;20266;-65
2021/12/08 01:15:33;;;;;;;7.80;2.73;;;4.70;99.90;;;;;;5015170;28;20208;-65
2021/12/08 01:18:00;;;;;;;4.13;2.20;;;4.70;99.90;;;;;;5011716;28;20674;-65
2021/12/08 01:20:27;;;;;;;5.47;2.33;;;4.70;99.90;;;;;;5012576;28;20227;-65
2021/12/08 01:22:54;;;;;;;5.00;2.23;;;4.70;99.90;;;;;;5005753;28;20223;-65
2021/12/08 01:25:21;;;;;;;4.17;2.37;;;4.70;99.90;;;;;;5007879;28;20197;-65
2021/12/08 01:27:47;;;;;;;3.20;2.10;;;4.70;99.90;;;;;;5013715;28;20575;-65
2021/12/08 01:30:14;;;;;;;4.57;2.50;;;4.60;99.90;;;;;;5002478;28;20517;-65
2021/12/08 01:32:41;;;;;;;3.40;2.00;;;4.60;99.90;;;;;;5010625;28;20223;-65
2021/12/08 01:35:10;;;;;;;3.57;2.30;;;4.60;99.90;;;;;;5010149;28;20208;-65
2021/12/08 01:37:38;;;;;;;3.53;2.20;;;4.40;99.90;;;;;;5006693;28;20213;-65
2021/12/08 01:40:07;;;;;;;4.93;2.90;;;4.60;99.90;;;;;;5012196;28;20250;-65
2021/12/08 01:42:42;;;;;;;6.13;2.80;;;4.50;99.90;;;;;;5010607;28;20227;-65
2021/12/08 01:48:03;;;;;;;3.37;2.23;;;4.40;99.90;;;;;;5010444;28;20575;-65
2021/12/08 01:50:30;;;;;;;6.43;2.20;;;4.30;99.90;;;;;;5011343;28;20662;-65
2021/12/08 01:52:57;;;;;;;4.50;2.20;;;4.30;99.90;;;;;;5012190;28;20234;-65
2021/12/08 01:55:24;;;;;;;4.00;2.17;;;4.20;99.90;;;;;;5009257;28;20197;-65
2021/12/08 01:57:51;;;;;;;5.57;2.30;;;4.40;99.90;;;;;;5013796;28;20254;-65
2021/12/08 02:00:36;;;;;;;5.13;2.17;;;4.30;99.90;;;;;;5014655;28;20230;-65
2021/12/08 02:03:03;;;;;;;4.80;2.30;;;4.30;99.90;;;;;;5010911;28;20279;-65
2021/12/08 02:05:30;;;;;;;4.20;2.23;;;4.10;99.90;;;;;;5013449;28;20666;-65
2021/12/08 02:07:57;;;;;;;5.73;2.30;;;4.00;99.90;;;;;;5013484;28;20207;-65
2021/12/08 02:10:25;;;;;;;6.47;2.40;;;3.90;99.90;;;;;;5011651;28;20206;-65
2021/12/08 02:12:52;;;;;;;3.53;2.10;;;3.80;99.90;;;;;;5020532;28;20223;-65
2021/12/08 02:15:20;;;;;;;3.17;2.27;;;3.70;99.90;;;;;;5015803;28;20192;-65
2021/12/08 02:17:52;;;;;;;3.77;1.83;;;3.50;99.90;;;;;;5014041;28;20672;-65
2021/12/08 02:20:21;;;;;;;2.83;1.90;;;3.40;99.90;;;;;;5010761;28;20797;-65
2021/12/08 02:22:48;;;;;;;5.27;2.20;;;3.40;99.90;;;;;;5012582;28;20707;-65
2021/12/08 02:25:18;;;;;;;6.63;2.27;;;3.30;99.90;;;;;;5010526;28;20196;-65
2021/12/08 02:27:46;;;;;;;4.47;2.10;;;3.30;99.90;;;;;;4999517;28;20697;-65
2021/12/08 02:30:23;;;;;;;4.50;2.00;;;3.20;99.90;;;;;;5012360;28;20200;-65
2021/12/08 02:47:05;;;;;;;3.17;2.00;;;3.10;99.90;;;;;;5002954;28;20677;-65
2021/12/08 02:49:33;;;;;;;3.23;1.93;;;3.10;99.90;;;;;;5008089;28;20595;-65
2021/12/08 02:52:01;;;;;;;4.63;2.07;;;3.00;99.90;;;;;;4965088;28;1148721;-65
2021/12/08 02:54:34;;;;;;;3.53;1.97;;;3.00;99.90;;;;;;5007776;28;20215;-65
2021/12/08 02:57:01;;;;;;;2.93;2.00;;;3.00;99.90;;;;;;5002605;28;20200;-65
2021/12/08 02:59:28;;;;;;;3.27;2.13;;;3.00;99.90;;;;;;5010471;28;20224;-65
2021/12/08 03:01:54;;;;;;;3.50;2.40;;;3.00;99.90;;;;;;5006995;28;20197;-65
2021/12/08 03:04:21;;;;;;;5.03;2.63;;;3.10;99.90;;;;;;5012781;28;20222;-65
2021/12/08 03:06:48;;;;;;;5.93;2.50;;;3.20;99.90;;;;;;5013701;28;20192;-65
2021/12/08 03:09:15;;;;;;;3.17;2.27;;;3.20;99.90;;;;;;5016370;28;20202;-65
2021/12/08 03:11:42;;;;;;;5.10;2.20;;;3.20;99.90;;;;;;5012848;28;20204;-65
2021/12/08 03:14:13;;;;;;;4.93;2.40;;;3.20;99.90;;;;;;5006539;28;20224;-65
2021/12/08 03:16:44;;;;;;;4.40;2.17;;;3.20;99.90;;;;;;5005590;28;20210;-65
2021/12/08 03:19:12;;;;;;;3.77;2.20;;;3.20;99.90;;;;;;5009469;28;20354;-65
2021/12/08 03:21:39;;;;;;;3.80;2.20;;;3.30;99.90;;;;;;5004051;28;20196;-65
2021/12/08 03:26:57;;;;;;;6.10;2.10;;;3.40;99.90;;;;;;5008921;28;20207;-65
2021/12/08 03:29:39;;;;;;;3.67;2.17;;;3.30;99.90;;;;;;5012197;28;20196;-65
2021/12/08 03:32:14;;;;;;;4.87;2.47;;;3.50;99.90;;;;;;5007849;28;20206;-65
2021/12/08 03:34:52;;;;;;;3.10;2.00;;;3.50;99.90;;;;;;5012795;28;20206;-65
2021/12/08 03:37:26;;;;;;;4.07;2.33;;;3.40;99.90;;;;;;5001568;28;20192;-65
2021/12/08 03:39:53;;;;;;;5.00;2.33;;;3.40;99.90;;;;;;5022207;28;20592;-65
2021/12/08 03:42:23;;;;;;;3.63;2.43;;;3.40;99.90;;;;;;5012970;28;20203;-65
2021/12/08 03:44:53;;;;;;;7.80;2.60;;;3.40;99.90;;;;;;5005059;28;20196;-65
2021/12/08 03:47:27;;;;;;;4.07;2.43;;;3.40;99.90;;;;;;5006238;28;20205;-65
2021/12/08 03:49:56;;;;;;;6.07;2.70;;;3.40;99.90;;;;;;5001458;28;20670;-65
2021/12/08 03:52:22;;;;;;;5.30;2.20;;;3.50;99.90;;;;;;5004287;28;20227;-65
2021/12/08 03:54:49;;;;;;;4.90;2.90;;;3.60;99.90;;;;;;5006329;28;20211;-65
2021/12/08 03:57:16;;;;;;;4.00;2.50;;;3.50;99.90;;;;;;5006785;28;20208;-65
2021/12/08 03:59:43;;;;;;;3.67;2.70;;;3.50;99.90;;;;;;5008443;28;20225;-65
2021/12/08 04:02:10;;;;;;;5.20;2.60;;;3.60;99.90;;;;;;5009194;28;20199;-65
2021/12/08 04:04:47;;;;;;;6.30;2.47;;;3.60;99.90;;;;;;5004506;28;20762;-65
2021/12/08 04:07:15;;;;;;;4.17;2.57;;;3.70;99.90;;;;;;5005618;28;20193;-65
2021/12/08 04:09:44;;;;;;;4.90;2.60;;;3.70;99.90;;;;;;5007696;28;20200;-65
2021/12/08 04:12:15;;;;;;;4.73;2.67;;;3.70;99.90;;;;;;5007756;28;20192;-65
2021/12/08 04:14:48;;;;;;;4.10;2.70;;;3.70;99.90;;;;;;5008840;28;20200;-65
2021/12/08 04:17:23;;;;;;;3.40;2.20;;;3.70;99.90;;;;;;4999629;28;20200;-65
2021/12/08 04:19:52;;;;;;;4.60;2.57;;;3.70;99.90;;;;;;5004612;28;20220;-65
2021/12/08 04:22:33;;;;;;;4.37;2.53;;;3.70;99.90;;;;;;5004659;28;20280;-65
2021/12/08 04:25:03;;;;;;;4.43;2.10;;;3.70;99.90;;;;;;5004202;28;20204;-65
2021/12/08 04:27:33;;;;;;;4.03;2.67;;;3.70;99.90;;;;;;4999477;28;20192;-65
2021/12/08 04:30:01;;;;;;;5.63;2.63;;;3.70;99.90;;;;;;5012824;28;20200;-65
2021/12/08 04:32:29;;;;;;;3.60;2.40;;;3.80;99.90;;;;;;5008640;28;20196;-65
2021/12/08 04:34:59;;;;;;;4.67;2.47;;;3.80;99.90;;;;;;5012502;28;20200;-65
2021/12/08 04:37:31;;;;;;;4.37;2.63;;;3.90;99.90;;;;;;5011463;28;20202;-65
2021/12/08 04:43:16;;;;;;;3.63;2.53;;;3.90;99.90;;;;;;5008052;28;20216;-65
2021/12/08 04:46:04;;;;;;;4.27;2.50;;;3.90;99.90;;;;;;5003808;28;20196;-65
2021/12/08 04:51:50;;;;;;;5.67;2.77;;;4.00;99.90;;;;;;5018660;28;20208;-65
2021/12/08 05:08:20;;;;;;;5.00;2.67;;;4.10;99.90;;;;;;5010131;28;20197;-64
2021/12/08 05:10:49;;;;;;;4.17;2.57;;;4.00;99.90;;;;;;5009364;28;20193;-65
2021/12/08 05:13:17;;;;;;;7.70;2.87;;;4.00;99.90;;;;;;5013256;28;20224;-65
2021/12/08 05:15:54;;;;;;;5.63;3.50;;;4.00;99.90;;;;;;5018138;28;20549;-65
2021/12/08 05:18:30;;;;;;;5.93;3.03;;;4.00;99.90;;;;;;5004609;28;20204;-65
2021/12/08 05:21:13;;;;;;;5.80;2.80;;;4.10;99.90;;;;;;5008584;28;20212;-64
2021/12/08 05:23:42;;;;;;;4.77;3.00;;;4.20;99.90;;;;;;5010223;28;20691;-65
2021/12/08 05:26:28;;;;;;;4.47;2.70;;;4.20;99.90;;;;;;5009973;28;20656;-64
2021/12/08 05:29:02;;;;;;;5.57;2.97;;;4.10;99.90;;;;;;5005288;28;20197;-64
2021/12/08 05:31:32;;;;;;;5.63;2.87;;;4.10;99.90;;;;;;5009642;28;20214;-64
2021/12/08 05:34:04;;;;;;;6.77;3.07;;;4.30;99.90;;;;;;4998528;28;20227;-64
2021/12/08 05:36:31;;;;;;;7.80;2.93;;;4.30;99.90;;;;;;5006735;28;20210;-64
2021/12/08 05:38:59;;;;;;;5.03;2.87;;;4.30;99.90;;;;;;5007524;28;20209;-64
2021/12/08 05:41:30;;;;;;;6.33;2.93;;;4.30;99.90;;;;;;5009268;28;20237;-64
2021/12/08 05:43:57;;;;;;;5.40;3.07;;;4.40;99.90;;;;;;5003981;28;20225;-64
2021/12/08 05:46:28;;;;;;;6.17;3.20;;;4.40;99.90;;;;;;5008202;28;20205;-64
2021/12/08 05:48:55;;;;;;;7.70;4.00;;;4.30;99.90;;;;;;5017544;28;20199;-64
2021/12/08 05:51:27;;;;;;;8.37;3.77;;;4.30;99.90;;;;;;5011623;28;20205;-64
2021/12/08 05:53:58;;;;;;;9.63;3.63;;;4.40;99.90;;;;;;5008931;28;20228;-64
2021/12/08 05:56:26;;;;;;;8.03;4.13;;;4.40;99.90;;;;;;5009062;28;20624;-64
2021/12/08 05:58:57;;;;;;;11.70;4.30;;;4.40;99.90;;;;;;5011759;28;20196;-64
2021/12/08 06:01:29;;;;;;;9.30;4.53;;;4.40;99.90;;;;;;5005723;28;20495;-64
2021/12/08 06:03:56;;;;;;;10.40;4.07;;;4.30;99.90;;;;;;5008262;28;20216;-64
2021/12/08 06:06:24;;;;;;;12.07;3.83;;;4.30;99.90;;;;;;5010446;28;20207;-64
2021/12/08 06:08:51;;;;;;;9.40;3.97;;;4.30;99.90;;;;;;5013720;28;20192;-65
2021/12/08 06:11:22;;;;;;;13.23;4.33;;;4.30;99.90;;;;;;5013374;28;20206;-64
2021/12/08 06:13:49;;;;;;;9.37;4.30;;;4.40;99.90;;;;;;5008529;28;20228;-64
2021/12/08 06:16:21;;;;;;;12.70;5.07;;;4.40;99.90;;;;;;5005697;28;20202;-64
2021/12/08 06:18:52;;;;;;;9.93;3.90;;;4.50;99.90;;;;;;5001972;28;20307;-64
2021/12/08 06:21:24;;;;;;;10.87;4.57;;;4.50;99.90;;;;;;5006148;28;20756;-64
2021/12/08 06:23:51;;;;;;;11.37;4.30;;;4.50;99.90;;;;;;5013762;28;20211;-64
2021/12/08 06:26:21;;;;;;;9.33;3.80;;;4.50;99.90;;;;;;5012956;28;20302;-64
2021/12/08 06:28:48;;;;;;;7.53;4.20;;;4.60;99.90;;;;;;5011184;28;20188;-64
2021/12/08 06:31:17;;;;;;;11.53;4.20;;;4.50;99.90;;;;;;5012243;28;20192;-64
2021/12/08 06:33:44;;;;;;;8.10;4.00;;;4.50;99.90;;;;;;5024133;28;20220;-64
2021/12/08 06:36:36;;;;;;;10.63;4.13;;;4.50;99.90;;;;;;5007806;28;20198;-64
2021/12/08 06:39:07;;;;;;;7.77;4.17;;;4.60;99.90;;;;;;5002056;28;20197;-64
2021/12/08 06:41:41;;;;;;;8.37;4.47;;;4.70;99.90;;;;;;5009777;28;20224;-64
2021/12/08 06:44:12;;;;;;;10.33;4.53;;;4.70;99.90;;;;;;5007369;28;20211;-64
2021/12/08 06:46:40;;;;;;;7.60;3.80;;;4.80;99.90;;;;;;5007406;28;20206;-64
2021/12/08 06:49:09;;;;;;;8.13;4.27;;;4.60;99.90;;;;;;5005077;28;20689;-64
2021/12/08 06:51:48;;;;;;;12.47;4.93;;;4.70;99.90;;;;;;5009817;28;20200;-65
2021/12/08 06:54:26;;;;;;;7.80;4.47;;;4.70;99.90;;;;;;4999974;28;20230;-64
2021/12/08 06:56:57;;;;;;;9.23;4.60;;;4.70;99.90;;;;;;5005300;28;20203;-64
2021/12/08 06:59:31;;;;;;;11.03;5.10;;;4.70;99.90;;;;;;5008452;28;20197;-64
2021/12/08 07:02:07;;;;;;;8.70;4.73;;;4.80;99.90;;;;;;4998874;28;20239;-64
2021/12/08 07:07:38;;;;;;;8.63;4.93;;;4.90;99.90;;;;;;5001759;28;20729;-64
2021/12/08 07:10:05;;;;;;;7.87;4.97;;;4.90;99.90;;;;;;5007963;28;20572;-64
2021/12/08 07:12:40;;;;;;;8.33;4.70;;;4.80;99.90;;;;;;5005976;28;20257;-64
2021/12/08 07:15:28;;;;;;;9.43;4.83;;;4.90;99.90;;;;;;5004520;28;20206;-64
2021/12/08 07:17:59;;;;;;;7.20;4.53;;;5.10;99.90;;;;;;5003167;28;20248;-64
2021/12/08 07:20:46;;;;;;;8.27;5.07;;;5.00;99.90;;;;;;5002346;28;20213;-64
2021/12/08 07:23:17;;;;;;;9.73;4.60;;;5.00;99.90;;;;;;5004561;28;20750;-64
2021/12/08 07:25:45;;;;;;;8.70;4.67;;;5.00;99.90;;;;;;4999861;28;20603;-64
2021/12/08 07:28:15;;;;;;;12.23;5.00;;;4.90;99.90;;;;;;4997938;28;20205;-64
2021/12/08 07:30:49;;;;;;;7.97;4.13;;;4.90;99.90;;;;;;4997653;28;20213;-64
2021/12/08 07:33:16;;;;;;;7.93;4.93;;;5.00;99.90;;;;;;5005640;28;20337;-64
2021/12/08 07:35:46;;;;;;;14.33;5.50;;;5.00;99.90;;;;;;5003255;28;20476;-64
2021/12/08 07:38:16;;;;;;;10.00;4.73;;;5.00;99.90;;;;;;5002454;28;20212;-64
2021/12/08 07:41:02;;;;;;;13.43;5.23;;;5.10;99.90;;;;;;5001250;28;20597;-64
2021/12/08 07:43:29;;;;;;;11.97;5.63;;;5.20;99.90;;;;;;5006641;28;20234;-64
2021/12/08 07:46:05;;;;;;;9.37;5.20;;;5.20;99.90;;;;;;4999097;28;20201;-64
2021/12/08 07:48:40;;;;;;;10.40;5.57;;;5.30;99.90;;;;;;4998760;28;20552;-65
2021/12/08 07:51:12;;;;;;;7.80;5.13;;;5.20;99.90;;;;;;5005126;28;20217;-65
2021/12/08 07:53:39;;;;;;;11.20;5.43;;;5.30;99.90;;;;;;5002336;28;20235;-64
2021/12/08 07:56:10;;;;;;;9.67;5.27;;;5.40;99.90;;;;;;4996849;28;20212;-64
2021/12/08 07:58:39;;;;;;;10.40;5.10;;;5.40;99.90;;;;;;5007667;28;20208;-64
2021/12/08 08:01:10;;;;;;;10.33;5.00;;;5.40;99.90;;;;;;5001920;28;20777;-64
2021/12/08 08:03:39;;;;;;;10.20;5.17;;;5.30;99.90;;;;;;5000076;28;20720;-64
2021/12/08 08:06:11;;;;;;;9.27;5.27;;;5.40;99.90;;;;;;5004332;28;20198;-64
2021/12/08 08:08:38;;;;;;;8.13;4.77;;;5.40;99.90;;;;;;4998440;28;20207;-64
2021/12/08 08:11:09;;;;;;;12.00;5.53;;;5.50;99.90;;;;;;5004129;28;20211;-64
2021/12/08 08:13:37;;;;;;;10.80;5.47;;;5.40;99.90;;;;;;4996208;28;20232;-64
2021/12/08 08:16:10;;;;;;;10.27;4.90;;;5.40;99.90;;;;;;4997926;28;20211;-64
2021/12/08 08:18:44;;;;;;;12.90;5.27;;;5.60;99.90;;;;;;5002484;28;20986;-64
2021/12/08 08:21:17;;;;;;;9.83;5.27;;;5.70;99.90;;;;;;5010937;28;20210;-64
2021/12/08 08:23:45;;;;;;;9.30;5.00;;;5.60;99.90;;;;;;4997679;28;20693;-64
2021/12/08 08:26:12;;;;;;;10.50;5.40;;;5.40;99.90;;;;;;4994980;28;20273;-64
2021/12/08 08:28:44;;;;;;;9.70;5.53;;;5.40;99.90;;;;;;4996952;28;20207;-64
2021/12/08 08:31:20;;;;;;;11.40;5.87;;;5.50;99.90;;;;;;5007871;28;20209;-64
2021/12/08 08:33:48;;;;;;;10.87;5.13;;;5.50;99.90;;;;;;5002144;28;20219;-65
2021/12/08 08:36:18;;;;;;;9.10;5.30;;;5.60;99.90;;;;;;5006258;28;20204;-65
2021/12/08 08:39:00;;;;;;;8.67;4.93;;;5.60;99.90;;;;;;5004336;28;20683;-65
2021/12/08 08:41:35;;;;;;;10.07;5.37;;;5.60;99.90;;;;;;5002322;28;20688;-65
2021/12/08 08:44:09;;;;;;;8.90;5.40;;;5.60;99.90;;;;;;5011423;28;20220;-65
2021/12/08 08:46:39;;;;;;;9.10;5.53;;;5.80;99.90;;;;;;5002116;28;20189;-65
2021/12/08 08:49:14;;;;;;;12.57;5.47;;;5.80;99.90;;;;;;5013266;28;20215;-65
2021/12/08 08:51:43;;;;;;;10.10;5.30;;;5.80;99.90;;;;;;5003276;28;20692;-66
2021/12/08 08:54:22;;;;;;;8.70;5.30;;;5.80;99.90;;;;;;4999248;28;20517;-66
2021/12/08 08:57:10;;;;;;;9.63;5.63;;;5.90;99.90;;;;;;4993817;28;20219;-64
2021/12/08 08:59:43;;;;;;;8.73;5.50;;;6.00;99.90;;;;;;5000936;28;20215;-64
2021/12/08 09:02:13;;;;;;;11.03;5.63;;;6.10;99.90;;;;;;4992797;28;20224;-64
2021/12/08 09:04:45;;;;;;;10.47;5.83;;;6.10;99.90;;;;;;5004975;28;20216;-65
2021/12/08 09:07:22;;;;;;;10.07;5.80;;;6.20;99.90;;;;;;5005832;28;20188;-65
2021/12/08 09:09:51;;;;;;;11.67;5.90;;;6.40;99.90;;;;;;5003059;28;20540;-64
2021/12/08 09:12:29;;;;;;;9.90;6.10;;;6.30;99.90;;;;;;5011246;28;20207;-64
2021/12/08 09:15:06;;;;;;;9.00;5.93;;;6.30;99.90;;;;;;5005191;28;20208;-65
2021/12/08 09:17:40;;;;;;;9.17;5.83;;;6.20;99.90;;;;;;4999057;28;20202;-65
2021/12/08 09:20:34;;;;;;;10.20;5.90;;;6.20;99.90;;;;;;5010567;28;20207;-65
2021/12/08 09:23:23;;;;;;;13.83;6.80;;;6.20;99.90;;;;;;5005654;28;20731;-64
2021/12/08 09:26:04;;;;;;;17.83;7.13;;;6.10;99.90;;;;;;5003405;28;20210;-65
2021/12/08 09:28:36;;;;;;;10.63;6.80;;;6.10;99.90;;;;;;5008818;28;20208;-65
2021/12/08 09:31:12;;;;;;;12.17;6.63;;;6.20;99.90;;;;;;5008298;28;20740;-64
2021/12/08 09:33:56;;;;;;;13.00;6.00;;;6.10;99.90;;;;;;5007462;28;20207;-64
2021/12/08 09:36:30;;;;;;;12.80;6.30;;;6.10;99.90;;;;;;5003811;28;20197;-64
2021/12/08 09:39:02;;;;;;;14.17;6.70;;;6.10;99.90;;;;;;5010436;28;20195;-64
2021/12/08 09:41:47;;;;;;;12.00;6.73;;;6.20;99.90;;;;;;5013385;28;21020;-64
2021/12/08 09:44:21;;;;;;;14.57;6.83;;;6.20;99.90;;;;;;5003223;28;20302;-64
2021/12/08 09:46:50;;;;;;;10.97;6.80;;;6.30;99.90;;;;;;5004458;28;20660;-64
2021/12/08 09:49:24;;;;;;;12.07;6.57;;;6.10;99.90;;;;;;5006860;28;20212;-64
2021/12/08 09:51:54;;;;;;;11.43;6.80;;;6.10;99.90;;;;;;5006356;28;20230;-64
2021/12/08 09:54:22;;;;;;;13.43;6.93;;;6.10;99.90;;;;;;5008098;28;20591;-64
2021/12/08 09:56:50;;;;;;;12.83;7.30;;;6.20;99.90;;;;;;5012220;28;20546;-64
2021/12/08 09:59:18;;;;;;;13.90;7.37;;;6.30;99.90;;;;;;5012451;28;20476;-64
2021/12/08 10:01:45;;;;;;;12.70;7.07;;;6.40;99.90;;;;;;5002884;28;20215;-64
2021/12/08 10:04:14;;;;;;;12.30;6.93;;;6.40;99.90;;;;;;5005314;28;20636;-64
2021/12/08 10:06:49;;;;;;;13.77;6.57;;;6.50;99.90;;;;;;5013441;28;20838;-64
2021/12/08 10:09:20;;;;;;;11.60;6.80;;;6.60;99.90;;;;;;5011688;28;20206;-64
2021/12/08 10:11:47;;;;;;;12.17;6.57;;;6.60;99.90;;;;;;5013025;28;20208;-64
2021/12/08 10:14:14;;;;;;;10.73;6.67;;;6.60;99.90;;;;;;5010332;28;20223;-64
2021/12/08 10:16:42;;;;;;;12.23;7.13;;;6.60;99.90;;;;;;5010250;28;20334;-64
2021/12/08 11:36:51;;;;;;;12.57;8.13;;;6.70;99.90;;;;;;4888529;29;20199;-72
2021/12/08 11:39:22;;;;;;;12.73;8.13;;;6.70;99.90;;;;;;4882139;29;20200;-73
2021/12/08 11:41:55;;;;;;;16.63;7.37;;;6.80;99.90;;;;;;4891572;29;20232;-71
2021/12/08 11:44:28;;;;;;;13.47;7.87;;;7.00;99.90;;;;;;4896721;29;20203;-71
2021/12/08 11:47:11;;;;;;;14.60;7.70;;;7.00;99.90;;;;;;4895319;29;20222;-73
2021/12/08 11:49:46;;;;;;;13.60;7.90;;;7.10;99.90;;;;;;4894810;29;20200;-73
2021/12/08 11:52:19;;;;;;;13.47;7.63;;;7.10;99.90;;;;;;4893922;29;20215;-73
2021/12/08 11:55:00;;;;;;;11.67;7.00;;;7.10;99.90;;;;;;4887331;29;20564;-73
2021/12/08 11:57:36;;;;;;;12.77;7.43;;;7.00;99.90;;;;;;4896087;29;20212;-74
2021/12/08 12:00:24;;;;;;;13.07;8.40;;;7.10;99.90;;;;;;4895548;29;20300;-74
2021/12/08 12:03:01;;;;;;;11.47;7.20;;;7.00;99.90;;;;;;4879857;29;20569;-73
2021/12/08 12:05:35;;;;;;;14.37;8.43;;;7.10;99.90;;;;;;4907482;29;20318;-74
2021/12/08 12:08:05;;;;;;;19.07;8.03;;;7.10;99.90;;;;;;4907075;29;20205;-74
2021/12/08 12:10:34;;;;;;;15.83;8.47;;;7.30;99.90;;;;;;4906654;29;20204;-74
2021/12/08 12:13:08;;;;;;;17.90;9.07;;;7.30;99.90;;;;;;4898305;29;20211;-75
2021/12/08 12:15:40;;;;;;;15.37;8.27;;;7.20;99.90;;;;;;4896747;29;20252;-73
2021/12/08 12:18:07;;;;;;;15.63;9.00;;;7.20;99.90;;;;;;4908129;29;20219;-74
2021/12/08 12:20:40;;;;;;;16.13;8.80;;;7.20;99.90;;;;;;4907783;29;20223;-74
2021/12/08 12:23:13;;;;;;;15.03;8.90;;;7.10;99.90;;;;;;4907684;29;20240;-73
2021/12/08 12:25:48;;;;;;;15.13;8.27;;;7.10;99.90;;;;;;4905315;29;20229;-74
2021/12/08 12:28:34;;;;;;;16.37;8.87;;;7.30;99.90;;;;;;4896965;29;20205;-74
2021/12/08 12:31:21;;;;;;;17.47;8.20;;;7.30;99.90;;;;;;4904632;29;20205;-74
2021/12/08 12:33:49;;;;;;;13.40;8.17;;;7.20;99.90;;;;;;4907987;29;20203;-75
2021/12/08 12:36:17;;;;;;;12.87;7.83;;;7.10;99.90;;;;;;4907372;29;20224;-74
2021/12/08 12:38:45;;;;;;;16.63;8.90;;;7.10;99.90;;;;;;4894796;29;20219;-74
2021/12/08 12:41:27;;;;;;;18.07;9.20;;;7.00;99.90;;;;;;4897629;29;20201;-72
2021/12/08 12:44:18;;;;;;;15.13;8.73;;;7.00;99.90;;;;;;4905708;29;20633;-72
2021/12/08 12:47:22;;;;;;;15.87;8.73;;;7.00;99.90;;;;;;4896225;29;20236;-72
2021/12/08 12:50:14;;;;;;;14.90;8.53;;;7.20;99.90;;;;;;4912566;29;20205;-72
2021/12/08 12:52:59;;;;;;;13.97;8.03;;;7.20;99.90;;;;;;4907894;29;20223;-76
2021/12/08 12:55:29;;;;;;;13.90;8.27;;;7.10;99.90;;;;;;4902866;29;20237;-74
2021/12/08 12:58:05;;;;;;;14.23;7.77;;;7.20;99.90;;;;;;4911048;29;20199;-72
2021/12/08 13:01:04;;;;;;;13.30;7.30;;;7.20;99.90;;;;;;4910926;29;20213;-73
2021/12/08 13:03:44;;;;;;;13.87;7.63;;;7.30;99.90;;;;;;4910836;29;20276;-73
2021/12/08 13:06:17;;;;;;;18.67;8.33;;;7.30;99.90;;;;;;4910773;29;20221;-74
2021/12/08 13:08:47;;;;;;;14.20;8.37;;;7.30;99.90;;;;;;4911270;29;20218;-75
2021/12/08 13:11:25;;;;;;;14.77;8.03;;;7.40;99.90;;;;;;4900557;29;20205;-73
2021/12/08 13:13:57;;;;;;;14.27;7.77;;;7.50;99.90;;;;;;4910430;29;20202;-73
2021/12/08 13:16:27;;;;;;;12.00;7.87;;;7.50;99.90;;;;;;4907478;29;20229;-73
2021/12/08 13:19:05;;;;;;;14.80;7.97;;;7.50;99.90;;;;;;4910788;29;20709;-75
2021/12/08 13:21:41;;;;;;;12.20;8.13;;;7.30;99.90;;;;;;4909300;29;20247;-76
2021/12/08 13:24:43;;;;;;;15.37;8.37;;;7.40;99.90;;;;;;4914300;29;20203;-73
2021/12/08 13:27:26;;;;;;;16.03;7.70;;;7.40;99.90;;;;;;4900823;29;20319;-73
2021/12/08 13:30:10;;;;;;;20.17;8.60;;;7.50;99.90;;;;;;4907628;29;20237;-74
2021/12/08 13:32:45;;;;;;;13.53;7.40;;;7.40;99.90;;;;;;4901457;29;20731;-73
2021/12/08 13:35:13;;;;;;;13.73;7.77;;;7.30;99.90;;;;;;4901119;29;20231;-75
2021/12/08 13:37:56;;;;;;;12.17;7.47;;;7.30;99.90;;;;;;4908828;29;20212;-74
2021/12/08 13:40:43;;;;;;;11.50;7.20;;;7.20;99.90;;;;;;4909732;29;20207;-75
2021/12/08 13:43:30;;;;;;;15.07;7.73;;;7.20;99.90;;;;;;4908796;29;20229;-73
2021/12/08 13:45:57;;;;;;;14.40;7.20;;;7.20;99.90;;;;;;4898505;29;20224;-72
2021/12/08 13:48:24;;;;;;;15.07;7.33;;;7.10;99.90;;;;;;4909567;29;20232;-73
2021/12/08 13:50:52;;;;;;;19.93;7.97;;;7.00;99.90;;;;;;4910652;29;20208;-73
2021/12/08 13:53:23;;;;;;;14.50;7.70;;;7.10;99.90;;;;;;4910406;29;20196;-71
2021/12/08 13:55:58;;;;;;;14.83;7.37;;;7.10;99.90;;;;;;4910352;29;20225;-72
2021/12/08 13:58:37;;;;;;;12.23;7.67;;;7.10;99.90;;;;;;4910515;29;20204;-74
2021/12/08 14:01:13;;;;;;;15.23;8.10;;;6.90;99.90;;;;;;4908871;29;20208;-72
2021/12/08 14:03:43;;;;;;;19.83;8.93;;;6.90;99.90;;;;;;4922133;29;20236;-74
2021/12/08 14:06:11;;;;;;;18.50;9.43;;;6.90;99.90;;;;;;4894659;29;20235;-73
2021/12/08 14:08:42;;;;;;;15.00;8.57;;;7.00;99.90;;;;;;4910586;29;20202;-74
2021/12/08 14:11:11;;;;;;;17.90;7.97;;;6.90;99.90;;;;;;4908136;29;20201;-70
2021/12/08 14:13:44;;;;;;;15.33;8.17;;;6.90;99.90;;;;;;4911284;29;20216;-73
2021/12/08 14:16:14;;;;;;;14.20;8.30;;;7.00;99.90;;;;;;4909018;29;20225;-74
2021/12/08 14:18:49;;;;;;;21.00;8.17;;;7.00;99.90;;;;;;4908790;29;20216;-72
2021/12/08 14:21:36;;;;;;;17.23;8.73;;;6.90;99.90;;;;;;4910011;29;20221;-73
2021/12/08 14:24:23;;;;;;;13.53;7.40;;;7.00;99.90;;;;;;4907885;29;20211;-73
2021/12/08 14:26:51;;;;;;;18.13;8.10;;;6.90;99.90;;;;;;4903275;29;20665;-73
2021/12/08 14:29:19;;;;;;;14.63;7.83;;;6.80;99.90;;;;;;4916319;29;20249;-73
2021/12/08 14:31:50;;;;;;;14.37;8.37;;;6.90;99.90;;;;;;4897815;29;20217;-71
2021/12/08 14:34:29;;;;;;;14.97;8.27;;;6.90;99.90;;;;;;4909265;29;20213;-73
2021/12/08 14:37:00;;;;;;;13.97;7.90;;;6.90;99.90;;;;;;4909273;29;20227;-72
2021/12/08 14:39:37;;;;;;;14.50;7.80;;;6.80;99.90;;;;;;4909084;29;20214;-71
2021/12/08 14:42:06;;;;;;;11.83;7.20;;;6.80;99.90;;;;;;4909868;29;20227;-74
2021/12/08 14:44:43;;;;;;;13.37;8.17;;;6.70;99.90;;;;;;4908417;29;20262;-73
2021/12/08 14:47:12;;;;;;;12.87;7.40;;;6.70;99.90;;;;;;4909337;29;20215;-72
2021/12/08 14:49:42;;;;;;;12.57;7.57;;;6.70;99.90;;;;;;4908713;29;20228;-72
2021/12/08 14:52:11;;;;;;;13.80;7.93;;;6.60;99.90;;;;;;4924485;29;20293;-72
2021/12/08 14:54:43;;;;;;;15.37;8.53;;;6.60;99.90;;;;;;4907011;29;20263;-73
2021/12/08 14:57:20;;;;;;;12.37;7.73;;;6.50;99.90;;;;;;4908684;29;20224;-74
2021/12/08 14:59:54;;;;;;;12.93;8.33;;;6.40;99.90;;;;;;4899774;29;20306;-74
2021/12/08 15:02:39;;;;;;;14.13;7.87;;;6.40;99.90;;;;;;4909963;29;20227;-73
2021/12/08 15:05:12;;;;;;;13.50;8.40;;;6.20;99.90;;;;;;4907504;29;20245;-73
2021/12/08 15:07:40;;;;;;;19.13;8.80;;;6.10;99.90;;;;;;4909976;29;20210;-71
2021/12/08 15:10:12;;;;;;;16.90;8.00;;;6.00;99.90;;;;;;4897131;29;20575;-73
2021/12/08 15:12:41;;;;;;;16.40;9.57;;;6.10;99.90;;;;;;4909167;29;20207;-72
2021/12/08 15:15:25;;;;;;;16.37;9.37;;;6.10;99.90;;;;;;4909119;29;20227;-75
2021/12/08 15:18:06;;;;;;;17.50;9.47;;;6.10;99.90;;;;;;4909519;29;20211;-73
2021/12/08 15:20:39;;;;;;;15.37;9.50;;;6.10;99.90;;;;;;4909085;29;21086;-74
2021/12/08 15:23:12;;;;;;;16.77;9.10;;;6.00;99.90;;;;;;4909958;29;20237;-72